Prescott, AZ

9:55 AM MST on March 03, 2015 (GMT -0700)
HADS CAMP WOOD RAIN NEAR BAGDAD 23NE AZ US USARMY-COE | Change Station
CLOSE
Current Station
Personal Weather Station
Location: Skull Valley, AZ
Elevation: 5750 ft
Nearby Weather Stations

Elev 5750 ft 34.80 °N, 112.88 °W | Updated 40 minutes ago

Scattered Clouds
Scattered Clouds
35.0 °F
Feels Like 35.0 °F
N
-
Wind Variable Wind from North

Today
High -- | Low -- °F
--% Chance of Precip.
Yesterday
High -- | Low -- °F
Precip. -- in
6:58 AM 6:28 PM
Waxing Gibbous, 96% visible
Pressure 29.93 in
Visibility 10.0 miles
Clouds Few 800 ft
Scattered Clouds 3300 ft
Dew Point Not available.
Humidity Not available.
Rainfall 0.17 in
Snow Depth Not available.
UV 2 out of 12
Pollen 6.80 out of 12
Air Quality Not available.
Flu Activity Not available.
SPECI KPRC 031623Z 15004KT 10SM FEW008 SCT033 03/00 A2993 RMK AO2 T00330000

More Conditions Fewer Conditions

Pressure 29.93 in
Visibility 10.0 miles
Clouds Few 800 ft
Scattered Clouds 3300 ft
Dew Point Not available.
Humidity Not available.
Rainfall 0.17 in
Snow Depth Not available.
UV 2 out of 12
Pollen 6.80 out of 12
Air Quality Not available.
Flu Activity Not available.
SPECI KPRC 031623Z 15004KT 10SM FEW008 SCT033 03/00 A2993 RMK AO2 T00330000

More Conditions Fewer Conditions

10-Day Weather Forecast

Almanac

Astronomy

Mar. 03, 2015 Rise Set
Actual Time
Civil Twilight
Nautical Twilight
Astronomical Twilight
Moon
Length of Visible Light
Length of Day
Tomorrow will be .
, % of the Moon is Illuminated

Today's Extremes

State Highs State Lows

Community

WunderPhotos

Upload Photos

1,802,170 photos uploaded!

WunderBlogs® & News

Nearby

Air Quality

  Air Quality AQ Index Pollutant
Not available.

Snow Depth

Station Depth Elevation

Earthquake Activity

City Distance Mag. Time & Date
Minimum magnitude displayed is 2.5.

Coastal Water Temperatures

Place Temperature

Nearby Weather Stations